Time;durP1;ratioP1;P1;durP2;ratioP2;P2;SDS_P1;SDS_P2;PMS_P1;PMS_P2;Temp;Humidity;BMP_temperature;BMP_pressure;BME280_temperature;BME280_humidity;BME280_pressure;Samples;Min_cycle;Max_cycle;Signal;HPM_P1;HPM_P2
2023/01/13 00:01:11;;;;;;;2.07;1.93;;;1.60;99.90;2.60;96898.00;;;;5093911;28;20430;-83
2023/01/13 00:04:00;;;;;;;3.43;2.20;;;1.60;99.90;2.70;96884.00;;;;5088227;28;20488;-84
2023/01/13 00:06:48;;;;;;;4.73;1.83;;;2.20;99.90;2.80;96889.00;;;;5085134;28;20536;-84
2023/01/13 00:09:37;;;;;;;4.70;2.10;;;1.70;99.90;2.90;96893.00;;;;5092564;28;21063;-84
2023/01/13 00:12:26;;;;;;;1.60;1.50;;;2.10;99.90;2.70;96884.00;;;;5087574;28;20916;-85
2023/01/13 00:15:14;;;;;;;3.93;1.43;;;1.80;99.90;2.40;96873.00;;;;5092735;28;20848;-84
2023/01/13 00:18:05;;;;;;;1.83;1.63;;;1.80;99.90;1.70;96865.00;;;;5090219;28;20492;-84
2023/01/13 00:21:00;;;;;;;1.00;0.90;;;1.50;99.90;1.60;96870.00;;;;5082581;28;20506;-83
2023/01/13 00:23:51;;;;;;;2.13;1.70;;;1.40;99.90;1.70;96877.00;;;;5091738;28;20417;-85
2023/01/13 00:26:40;;;;;;;3.50;2.07;;;1.30;99.90;2.10;96875.00;;;;5092278;28;20532;-84
2023/01/13 00:29:28;;;;;;;1.57;1.27;;;1.20;99.90;2.10;96868.00;;;;5090638;28;20491;-84
2023/01/13 00:32:17;;;;;;;2.00;1.90;;;1.30;99.90;2.10;96868.00;;;;5085743;28;20825;-84
2023/01/13 00:35:08;;;;;;;1.50;1.37;;;1.30;99.90;1.90;96857.00;;;;5091700;28;20437;-83
2023/01/13 00:37:57;;;;;;;5.37;1.80;;;1.30;99.90;1.70;96866.00;;;;5091558;28;20556;-85
2023/01/13 00:40:56;;;;;;;2.93;2.13;;;1.30;99.90;2.30;96871.00;;;;5078357;28;20903;-85
2023/01/13 00:43:44;;;;;;;2.73;1.53;;;1.60;99.90;2.30;96866.00;;;;5084606;28;20849;-85
2023/01/13 00:46:33;;;;;;;2.00;1.70;;;1.40;99.90;2.20;96874.00;;;;5091402;28;20992;-85
2023/01/13 00:49:21;;;;;;;1.10;1.10;;;1.40;99.90;2.20;96858.00;;;;5091353;28;20488;-83
2023/01/13 00:52:12;;;;;;;5.53;1.50;;;1.40;99.90;2.20;96856.00;;;;5090435;28;20422;-85
2023/01/13 00:55:01;;;;;;;4.17;2.47;;;1.40;99.90;2.50;96864.00;;;;5077702;28;20426;-84
2023/01/13 00:57:49;;;;;;;3.77;2.63;;;1.50;99.90;2.50;96871.00;;;;5095691;28;20438;-85
2023/01/13 01:00:38;;;;;;;1.40;1.30;;;1.90;99.90;2.00;96860.00;;;;5091074;28;20490;-86
2023/01/13 01:03:28;;;;;;;1.90;1.47;;;1.50;99.90;2.00;96858.00;;;;5090747;28;20426;-84
2023/01/13 01:06:19;;;;;;;2.70;2.17;;;1.50;99.90;2.40;96868.00;;;;5090984;28;20469;-85
2023/01/13 01:09:14;;;;;;;5.37;2.80;;;2.20;99.90;2.70;96874.00;;;;5091258;28;20465;-84
2023/01/13 01:12:03;;;;;;;2.70;2.33;;;1.60;99.90;2.50;96886.00;;;;5092931;28;20823;-85
2023/01/13 01:14:51;;;;;;;2.83;1.83;;;1.70;99.90;2.30;96886.00;;;;5080337;28;20440;-84
2023/01/13 01:17:40;;;;;;;3.13;2.17;;;1.60;99.90;2.60;96874.00;;;;5094611;28;20512;-85
2023/01/13 01:20:29;;;;;;;6.53;2.00;;;1.60;99.90;2.60;96874.00;;;;5093912;28;20418;-84
2023/01/13 01:23:17;;;;;;;2.07;1.80;;;2.00;99.90;2.90;96875.00;;;;5095034;28;20490;-85
2023/01/13 01:26:12;;;;;;;2.83;2.07;;;1.70;99.90;2.60;96869.00;;;;5094945;28;20844;-85
2023/01/13 01:29:02;;;;;;;6.40;2.37;;;1.80;99.90;2.70;96871.00;;;;5094339;28;20491;-84
2023/01/13 01:31:50;;;;;;;2.03;1.60;;;2.20;99.90;2.90;96871.00;;;;5093098;28;20418;-84
2023/01/13 01:34:39;;;;;;;2.13;1.90;;;2.30;99.90;3.00;96861.00;;;;5094211;28;20956;-84
2023/01/13 01:37:28;;;;;;;2.80;1.90;;;2.00;99.90;2.70;96855.00;;;;5086489;28;20441;-85
2023/01/13 01:40:17;;;;;;;2.43;1.70;;;2.10;99.90;2.70;96859.00;;;;5095262;28;20453;-85
2023/01/13 01:46:21;;;;;;;3.77;2.20;;;1.90;99.90;2.20;96843.00;;;;5092720;28;20456;-85
2023/01/13 01:49:18;;;;;;;3.67;2.27;;;1.80;99.90;2.50;96834.00;;;;5094582;28;20453;-84
2023/01/13 01:52:12;;;;;;;3.23;1.83;;;1.80;99.90;3.00;96836.00;;;;5104167;28;20470;-83
2023/01/13 01:55:06;;;;;;;4.80;1.97;;;2.00;99.90;2.60;96821.00;;;;5090462;28;20430;-85
2023/01/13 01:58:02;;;;;;;3.77;2.00;;;1.80;99.90;2.50;96818.00;;;;5095772;28;20998;-84
2023/01/13 02:00:52;;;;;;;4.00;2.20;;;1.80;99.90;2.90;96829.00;;;;5094749;28;20433;-84
2023/01/13 02:03:46;;;;;;;7.00;1.80;;;1.90;99.90;2.70;96808.00;;;;5095156;28;20837;-85
2023/01/13 02:06:35;;;;;;;1.80;1.27;;;1.80;99.90;2.30;96808.00;;;;5080910;28;21014;-84
2023/01/13 02:09:26;;;;;;;2.63;1.83;;;1.80;99.90;2.50;96820.00;;;;5092329;28;20518;-85
2023/01/13 02:12:31;;;;;;;2.97;2.30;;;1.70;99.90;2.20;96815.00;;;;5095591;28;20426;-84
2023/01/13 02:15:23;;;;;;;2.97;2.37;;;1.70;99.90;2.70;96813.00;;;;5093645;28;20433;-85
2023/01/13 02:18:37;;;;;;;4.40;1.87;;;1.70;99.90;2.90;96823.00;;;;5094046;28;20449;-84
2023/01/13 02:21:59;;;;;;;1.90;1.57;;;1.80;99.90;2.70;96809.00;;;;5090190;28;20459;-85
2023/01/13 02:25:17;;;;;;;5.97;2.37;;;1.70;99.90;2.70;96803.00;;;;5084783;28;20433;-84
2023/01/13 02:28:32;;;;;;;5.37;3.13;;;1.80;99.90;2.80;96808.00;;;;5093882;28;20986;-85
2023/01/13 02:34:37;;;;;;;2.90;2.33;;;1.90;99.90;3.00;96797.00;;;;5094775;28;20739;-85
2023/01/13 02:37:30;;;;;;;1.73;1.63;;;2.00;99.90;3.10;96799.00;;;;5084327;28;20453;-85
2023/01/13 02:40:25;;;;;;;9.70;2.80;;;2.10;99.90;3.40;96790.00;;;;5094634;28;20520;-84
2023/01/13 02:46:34;;;;;;;4.00;2.57;;;2.20;99.90;3.30;96785.00;;;;5094186;28;20530;-84
2023/01/13 02:49:32;;;;;;;1.87;1.77;;;2.40;99.90;2.80;96787.00;;;;5093326;28;20493;-85
2023/01/13 02:52:26;;;;;;;1.93;1.73;;;2.20;99.90;2.80;96784.00;;;;5094121;28;20437;-83
2023/01/13 02:55:21;;;;;;;4.97;2.20;;;2.10;99.90;2.70;96781.00;;;;5095567;27;20461;-84
2023/01/13 02:58:13;;;;;;;3.33;2.30;;;2.10;99.90;3.10;96790.00;;;;5082256;28;20550;-85
2023/01/13 03:01:02;;;;;;;2.10;1.80;;;2.10;99.90;3.40;96795.00;;;;5094214;28;20854;-83
2023/01/13 03:03:52;;;;;;;2.37;1.93;;;2.20;99.90;3.10;96782.00;;;;5093909;28;20421;-85
2023/01/13 03:06:54;;;;;;;2.63;1.63;;;2.20;99.90;2.80;96777.00;;;;5094530;28;20456;-84
2023/01/13 03:09:51;;;;;;;4.93;2.03;;;2.10;99.90;2.70;96772.00;;;;5092217;28;20468;-85
2023/01/13 03:12:51;;;;;;;4.50;2.53;;;2.20;99.90;3.10;96780.00;;;;5092799;28;20434;-84
2023/01/13 03:15:49;;;;;;;6.60;2.33;;;2.20;99.90;3.00;96780.00;;;;5094749;28;20433;-84
2023/01/13 03:18:47;;;;;;;5.97;3.20;;;2.20;99.90;3.30;96776.00;;;;5094220;28;20430;-84
2023/01/13 03:21:44;;;;;;;3.30;2.37;;;2.20;99.90;3.50;96780.00;;;;5091932;28;21015;-84
2023/01/13 03:24:38;;;;;;;3.23;1.80;;;2.30;99.90;3.70;96779.00;;;;5084383;28;20421;-84
2023/01/13 03:27:32;;;;;;;4.67;2.43;;;2.40;99.90;3.30;96777.00;;;;5093414;28;20482;-83
2023/01/13 03:30:27;;;;;;;3.50;1.90;;;2.30;99.90;2.70;96766.00;;;;5093124;28;20503;-85
2023/01/13 03:33:19;;;;;;;2.57;2.23;;;2.20;99.90;2.80;96776.00;;;;5095277;28;20422;-84
2023/01/13 03:36:11;;;;;;;2.10;1.57;;;2.20;99.90;2.60;96781.00;;;;5084226;28;20421;-83
2023/01/13 03:39:09;;;;;;;3.83;1.43;;;2.10;99.90;2.70;96769.00;;;;5092753;28;20422;-84
2023/01/13 03:42:03;;;;;;;2.47;2.10;;;2.10;99.90;3.00;96774.00;;;;5092203;28;20429;-83
2023/01/13 03:44:58;;;;;;;2.10;1.63;;;2.20;99.90;3.60;96761.00;;;;5092994;28;20441;-83
2023/01/13 03:47:54;;;;;;;2.13;1.93;;;2.20;99.90;3.80;96758.00;;;;5092825;28;20549;-84
2023/01/13 03:50:48;;;;;;;2.00;1.73;;;2.30;99.90;3.50;96773.00;;;;5092758;28;20562;-84
2023/01/13 03:53:40;;;;;;;4.33;1.93;;;2.40;99.90;3.20;96768.00;;;;5093102;28;20453;-85
2023/01/13 03:56:36;;;;;;;2.00;1.80;;;2.40;99.90;3.60;96742.00;;;;5094714;28;20463;-84
2023/01/13 03:59:31;;;;;;;2.93;1.83;;;2.40;99.90;3.60;96774.00;;;;5092855;28;20422;-84
2023/01/13 04:02:29;;;;;;;2.00;1.90;;;2.40;99.90;3.60;96777.00;;;;5093767;28;20418;-84
2023/01/13 04:05:19;;;;;;;2.27;2.07;;;2.40;99.90;3.60;96782.00;;;;5093899;28;20497;-85
2023/01/13 04:08:16;;;;;;;4.17;1.50;;;2.40;99.90;3.80;96782.00;;;;5091241;28;20928;-84
2023/01/13 04:11:11;;;;;;;1.53;1.43;;;2.50;99.90;4.00;96798.00;;;;5092191;28;20986;-84
2023/01/13 04:14:04;;;;;;;2.53;1.47;;;2.60;99.90;4.20;96777.00;;;;5090116;28;20487;-84
2023/01/13 04:16:54;;;;;;;2.33;2.00;;;2.80;99.90;4.30;96755.00;;;;5093843;28;20446;-84
2023/01/13 04:19:42;;;;;;;1.57;1.23;;;2.80;99.90;3.90;96748.00;;;;5090928;28;20449;-84
2023/01/13 04:22:31;;;;;;;2.07;1.60;;;2.90;99.90;4.20;96746.00;;;;5093053;28;21157;-84
2023/01/13 04:25:20;;;;;;;3.13;1.93;;;2.90;99.90;4.30;96741.00;;;;5093046;28;21413;-85
2023/01/13 04:28:09;;;;;;;2.03;1.87;;;2.90;99.90;4.30;96744.00;;;;5092534;28;20502;-85
2023/01/13 04:30:59;;;;;;;3.43;1.83;;;3.00;99.90;3.60;96727.00;;;;5091935;28;20551;-84
2023/01/13 04:33:48;;;;;;;1.53;1.23;;;3.70;99.90;4.00;96730.00;;;;5093141;28;20432;-84
2023/01/13 04:36:37;;;;;;;1.80;1.70;;;2.80;99.90;4.20;96720.00;;;;5091756;28;20454;-84
2023/01/13 04:39:26;;;;;;;4.73;1.73;;;2.80;99.90;4.30;96731.00;;;;5093064;28;20430;-84
2023/01/13 04:42:14;;;;;;;2.80;1.40;;;3.00;99.90;4.30;96750.00;;;;5091717;28;20422;-84
2023/01/13 04:45:03;;;;;;;7.97;2.03;;;2.90;99.90;4.30;96760.00;;;;5095134;28;20417;-84
2023/01/13 04:47:54;;;;;;;3.80;2.03;;;3.00;99.90;4.10;96760.00;;;;5092602;28;20450;-84
2023/01/13 04:50:43;;;;;;;1.53;1.37;;;2.90;99.90;3.90;96758.00;;;;5094878;28;20479;-83
2023/01/13 04:53:32;;;;;;;2.17;1.60;;;2.90;99.90;4.10;96759.00;;;;5097441;28;20760;-84
2023/01/13 04:56:20;;;;;;;2.07;1.37;;;3.00;99.90;4.20;96763.00;;;;5097412;28;20448;-84
2023/01/13 04:59:10;;;;;;;3.37;1.47;;;3.00;99.90;4.40;96762.00;;;;5095793;28;20436;-84
2023/01/13 05:01:59;;;;;;;1.87;1.07;;;3.00;99.90;4.30;96753.00;;;;5094780;28;20868;-84
2023/01/13 05:04:49;;;;;;;2.10;1.50;;;3.10;99.90;4.40;96731.00;;;;5095547;28;20432;-85
2023/01/13 05:07:38;;;;;;;5.40;2.03;;;3.10;99.90;4.40;96726.00;;;;5091679;28;20449;-84
2023/01/13 05:10:27;;;;;;;2.83;2.03;;;3.10;99.90;4.20;96733.00;;;;5093661;28;20457;-84
2023/01/13 05:19:31;;;;;;;1.60;1.50;;;3.00;99.90;4.00;96729.00;;;;5098832;28;20455;-84
2023/01/13 05:25:28;;;;;;;2.90;2.63;;;3.00;99.90;3.90;96750.00;;;;5102980;28;20428;-84
2023/01/13 05:28:17;;;;;;;3.73;2.50;;;3.00;99.90;4.30;96754.00;;;;5099021;28;20525;-84
2023/01/13 05:31:06;;;;;;;2.03;1.77;;;3.00;99.90;4.40;96752.00;;;;5095666;28;20529;-84
2023/01/13 05:33:54;;;;;;;1.20;1.10;;;3.10;99.90;4.20;96742.00;;;;5093020;28;20440;-84
2023/01/13 05:36:43;;;;;;;4.37;1.97;;;3.10;99.90;4.40;96736.00;;;;5091267;28;20466;-84
2023/01/13 05:43:18;;;;;;;1.70;1.53;;;3.70;99.90;4.50;96740.00;;;;5092144;28;20430;-83
2023/01/13 05:45:52;;;;;;;1.83;1.67;;;3.20;99.90;4.60;96715.00;;;;5094760;28;20481;-84
2023/01/13 05:48:43;;;;;;;2.33;1.57;;;3.20;99.90;4.40;96723.00;;;;5089997;28;20418;-84
2023/01/13 05:51:31;;;;;;;4.33;2.40;;;3.20;99.90;4.40;96736.00;;;;5087748;28;21056;-84
2023/01/13 05:54:20;;;;;;;4.77;1.67;;;3.20;99.90;4.00;96726.00;;;;5091701;28;20438;-84
2023/01/13 05:57:10;;;;;;;6.83;2.17;;;3.20;99.90;4.20;96725.00;;;;5091257;28;20445;-85
2023/01/13 05:59:59;;;;;;;2.93;1.40;;;3.10;99.90;4.30;96716.00;;;;5086645;28;20425;-84
2023/01/13 06:02:48;;;;;;;1.60;1.50;;;4.80;99.90;4.20;96708.00;;;;5090132;28;20969;-84
2023/01/13 06:05:37;;;;;;;1.77;1.47;;;3.20;99.90;4.10;96715.00;;;;5094349;28;20426;-84
2023/01/13 06:08:26;;;;;;;1.70;1.30;;;3.10;99.90;4.00;96719.00;;;;5093258;28;20437;-84
2023/01/13 06:11:15;;;;;;;2.83;1.93;;;3.10;99.90;3.80;96724.00;;;;5093879;28;20986;-85
2023/01/13 06:14:05;;;;;;;2.00;1.73;;;3.00;99.90;4.10;96725.00;;;;5095533;28;20430;-83
2023/01/13 06:16:53;;;;;;;3.23;2.23;;;3.00;99.90;4.30;96727.00;;;;5096775;28;20452;-84
2023/01/13 06:19:43;;;;;;;2.33;1.87;;;3.00;99.90;4.20;96729.00;;;;5095033;28;20445;-84
2023/01/13 06:22:34;;;;;;;3.10;1.73;;;3.00;99.90;3.70;96718.00;;;;5094212;28;20413;-84
2023/01/13 06:25:34;;;;;;;2.93;1.50;;;3.00;99.90;3.60;96726.00;;;;5094859;28;21032;-84
2023/01/13 06:28:23;;;;;;;2.40;1.93;;;2.80;99.90;4.00;96740.00;;;;5095593;28;20930;-84
2023/01/13 06:31:13;;;;;;;3.47;2.00;;;2.80;99.90;4.00;96723.00;;;;5088634;28;20465;-84
2023/01/13 06:34:06;;;;;;;13.00;6.60;;;2.80;99.90;4.00;96721.00;;;;5081809;28;20418;-84
2023/01/13 06:36:56;;;;;;;4.97;4.47;;;2.90;99.90;3.70;96727.00;;;;5091593;28;20445;-84
2023/01/13 06:39:45;;;;;;;2.80;1.67;;;2.90;99.90;3.80;96727.00;;;;5093017;28;20409;-83
2023/01/13 06:45:48;;;;;;;1.67;1.57;;;2.90;99.90;4.30;96732.00;;;;5086323;28;20425;-84
2023/01/13 06:48:38;;;;;;;2.53;1.97;;;2.90;99.90;4.40;96726.00;;;;5087707;28;20439;-83
2023/01/13 06:51:27;;;;;;;3.67;2.40;;;3.10;99.90;3.90;96719.00;;;;5094437;28;20539;-84
2023/01/13 06:54:16;;;;;;;4.27;2.17;;;3.00;99.90;3.50;96728.00;;;;5084208;28;20457;-84
2023/01/13 06:57:05;;;;;;;2.70;2.40;;;2.90;99.90;3.30;96722.00;;;;5091443;28;20495;-84
2023/01/13 06:59:53;;;;;;;6.17;2.33;;;2.70;99.90;3.30;96731.00;;;;5081298;28;20966;-84
2023/01/13 07:02:42;;;;;;;3.10;1.63;;;2.60;99.90;3.30;96726.00;;;;5095192;28;20430;-84
2023/01/13 07:05:32;;;;;;;5.27;3.17;;;2.80;99.90;3.30;96736.00;;;;5093264;28;20441;-83
2023/01/13 07:08:21;;;;;;;4.77;2.60;;;2.50;99.90;4.00;96748.00;;;;5091206;28;20425;-83
2023/01/13 07:11:10;;;;;;;3.03;1.97;;;2.60;99.90;4.30;96741.00;;;;5091738;28;20523;-83
2023/01/13 07:17:07;;;;;;;4.40;2.60;;;2.80;99.90;4.30;96734.00;;;;5093302;28;20455;-84
2023/01/13 07:19:56;;;;;;;4.10;2.87;;;2.90;99.90;4.30;96732.00;;;;5085790;28;20499;-84
2023/01/13 07:22:47;;;;;;;9.07;4.13;;;3.00;99.90;4.10;96740.00;;;;5098256;28;21064;-83
2023/01/13 07:25:35;;;;;;;4.37;3.17;;;3.00;99.90;4.10;96736.00;;;;5102998;28;20429;-83
2023/01/13 07:28:25;;;;;;;4.80;3.87;;;3.00;99.90;4.10;96730.00;;;;5084752;28;20439;-83
2023/01/13 07:31:16;;;;;;;5.20;3.20;;;3.10;99.90;3.90;96735.00;;;;5085022;28;20470;-84
2023/01/13 07:34:06;;;;;;;2.90;2.43;;;3.00;99.90;3.60;96726.00;;;;5086881;28;20437;-84
2023/01/13 07:36:54;;;;;;;4.53;2.33;;;2.90;99.90;3.80;96729.00;;;;5084717;28;20447;-83
2023/01/13 07:39:45;;;;;;;6.57;2.30;;;2.90;99.90;4.00;96746.00;;;;5086493;28;20506;-83
2023/01/13 07:45:40;;;;;;;2.97;2.37;;;2.90;99.90;3.80;96741.00;;;;5090003;28;20419;-84
2023/01/13 07:48:29;;;;;;;2.80;2.03;;;2.80;99.90;3.40;96736.00;;;;5091672;28;20429;-84
2023/01/13 07:51:18;;;;;;;8.20;2.47;;;2.80;99.90;3.80;96739.00;;;;5086005;28;20619;-84
2023/01/13 07:54:07;;;;;;;4.70;2.13;;;2.80;99.90;4.10;96752.00;;;;5088321;28;20891;-84
2023/01/13 07:56:57;;;;;;;3.87;2.33;;;2.90;99.90;4.60;96760.00;;;;5090904;28;20457;-84
2023/01/13 07:59:46;;;;;;;3.73;2.30;;;3.10;99.90;4.40;96750.00;;;;5088256;28;20409;-84
2023/01/13 08:02:35;;;;;;;12.43;3.03;;;3.20;99.90;4.10;96735.00;;;;5090108;28;20457;-84
2023/01/13 08:05:24;;;;;;;6.30;2.73;;;3.10;99.90;4.20;96754.00;;;;5087779;28;20434;-84
2023/01/13 08:08:12;;;;;;;5.90;2.60;;;3.00;99.90;4.30;96748.00;;;;5088844;28;20438;-84
2023/01/13 08:11:02;;;;;;;4.37;3.20;;;3.10;99.90;4.10;96749.00;;;;5093039;28;20449;-85
2023/01/13 08:13:56;;;;;;;6.60;2.60;;;3.10;99.90;4.00;96758.00;;;;5096741;28;20497;-84
2023/01/13 08:16:46;;;;;;;9.77;3.80;;;3.10;99.90;4.00;96760.00;;;;5086423;28;20809;-84
2023/01/13 08:19:35;;;;;;;7.53;3.57;;;3.00;99.90;4.40;96749.00;;;;5090456;28;20426;-84
2023/01/13 08:22:24;;;;;;;4.97;2.70;;;3.00;99.90;4.80;96761.00;;;;5072219;28;20856;-84
2023/01/13 08:25:12;;;;;;;4.00;2.47;;;3.20;99.90;4.80;96756.00;;;;5086248;28;20499;-84
2023/01/13 08:28:01;;;;;;;6.17;3.17;;;3.30;99.90;5.00;96742.00;;;;5092140;28;20430;-85
2023/01/13 08:30:53;;;;;;;4.87;3.53;;;3.40;99.90;4.40;96746.00;;;;5087532;28;20466;-85
2023/01/13 08:33:41;;;;;;;6.43;4.27;;;3.40;99.90;4.40;96731.00;;;;5093466;28;20445;-84
2023/01/13 08:36:30;;;;;;;4.53;2.73;;;3.40;99.90;4.80;96735.00;;;;5095679;28;20972;-84
2023/01/13 08:39:19;;;;;;;4.50;1.90;;;3.50;99.90;4.70;96729.00;;;;5095336;28;20429;-84
2023/01/13 08:42:08;;;;;;;5.37;2.43;;;3.50;99.90;4.90;96728.00;;;;5095503;28;20430;-84
2023/01/13 08:44:57;;;;;;;9.70;2.67;;;3.60;99.90;4.70;96736.00;;;;5096608;28;20430;-84
2023/01/13 08:47:47;;;;;;;4.37;3.37;;;3.70;99.90;4.80;96747.00;;;;5092222;28;20498;-84
2023/01/13 08:50:36;;;;;;;7.63;3.17;;;3.80;99.90;5.30;96748.00;;;;5096071;28;20433;-85
2023/01/13 08:53:24;;;;;;;5.87;3.00;;;4.20;99.90;6.00;96743.00;;;;5091367;28;20481;-84
2023/01/13 08:56:13;;;;;;;4.13;2.70;;;4.20;99.90;6.10;96754.00;;;;5089410;28;20465;-84
2023/01/13 08:59:03;;;;;;;7.93;3.47;;;4.40;99.90;5.80;96741.00;;;;5090400;28;20449;-84
2023/01/13 09:01:51;;;;;;;5.13;2.70;;;4.50;99.90;5.40;96739.00;;;;5090039;28;20352;-83
2023/01/13 09:04:41;;;;;;;3.40;2.07;;;4.50;99.90;5.30;96735.00;;;;5086393;28;20474;-84
2023/01/13 09:07:31;;;;;;;2.87;2.37;;;4.40;99.90;5.70;96752.00;;;;5088268;28;20255;-85
2023/01/13 09:10:19;;;;;;;5.43;3.23;;;4.50;99.90;6.10;96747.00;;;;5087953;28;20204;-84
2023/01/13 09:13:13;;;;;;;4.03;2.40;;;4.60;99.90;6.20;96740.00;;;;5091212;28;20616;-84
2023/01/13 09:16:02;;;;;;;4.30;2.97;;;4.80;99.90;6.30;96743.00;;;;5085706;28;20202;-83
2023/01/13 09:18:50;;;;;;;2.97;2.63;;;5.10;99.90;6.30;96743.00;;;;5080318;28;20203;-84
2023/01/13 09:21:41;;;;;;;3.70;2.83;;;4.90;99.90;6.50;96747.00;;;;5086028;28;20302;-83
2023/01/13 09:24:30;;;;;;;8.50;3.20;;;5.10;99.90;6.50;96742.00;;;;5086811;28;20204;-85
2023/01/13 09:27:18;;;;;;;4.30;2.43;;;5.10;99.90;6.80;96749.00;;;;5087512;28;20272;-85
2023/01/13 09:30:09;;;;;;;4.53;2.63;;;5.30;99.90;7.00;96739.00;;;;5092108;28;20672;-85
2023/01/13 09:36:01;;;;;;;7.33;2.90;;;5.50;99.90;7.20;96730.00;;;;5088648;28;20195;-85
2023/01/13 09:38:51;;;;;;;2.60;1.67;;;5.60;99.90;6.90;96725.00;;;;5079085;28;20282;-85
2023/01/13 09:45:03;;;;;;;3.30;2.93;;;5.60;99.90;6.70;96729.00;;;;5061850;28;20203;-85
2023/01/13 09:47:57;;;;;;;3.40;2.20;;;5.80;99.90;6.90;96712.00;;;;5089521;28;20227;-85
2023/01/13 09:50:59;;;;;;;5.67;3.50;;;5.60;99.90;7.30;96709.00;;;;5086390;28;20656;-85
2023/01/13 09:53:55;;;;;;;6.50;3.63;;;5.70;99.90;7.40;96711.00;;;;5086285;28;20685;-85
2023/01/13 09:56:43;;;;;;;6.83;3.97;;;5.90;99.90;7.30;96700.00;;;;5086456;28;20254;-85
2023/01/13 09:59:35;;;;;;;5.77;3.90;;;5.90;99.90;6.90;96705.00;;;;5084871;28;20200;-85
2023/01/13 10:02:44;;;;;;;7.43;4.23;;;5.80;99.90;7.40;96700.00;;;;5082168;28;20707;-85
2023/01/13 10:05:37;;;;;;;9.67;4.07;;;5.90;99.90;7.70;96700.00;;;;5088417;28;20218;-85
2023/01/13 10:08:29;;;;;;;4.67;3.10;;;5.90;99.90;7.40;96688.00;;;;5085825;28;20192;-85
2023/01/13 10:14:39;;;;;;;8.00;4.80;;;6.10;99.90;7.60;96680.00;;;;5086807;28;20199;-85
2023/01/13 10:17:34;;;;;;;6.13;3.60;;;6.20;99.90;7.50;96672.00;;;;5088649;28;20215;-85
2023/01/13 10:20:30;;;;;;;5.43;2.83;;;6.20;99.90;7.60;96668.00;;;;5088199;28;20207;-85
2023/01/13 10:23:44;;;;;;;6.90;3.40;;;6.20;99.90;7.50;96665.00;;;;5081923;28;20222;-85
2023/01/13 10:26:49;;;;;;;6.73;3.33;;;6.30;99.90;7.60;96666.00;;;;5086730;28;20758;-85
2023/01/13 10:29:37;;;;;;;3.50;2.37;;;6.30;99.90;7.60;96657.00;;;;5086613;28;20501;-85
2023/01/13 10:32:26;;;;;;;6.77;2.70;;;6.40;99.90;7.80;96657.00;;;;5093629;28;20207;-85
2023/01/13 10:35:15;;;;;;;6.67;3.27;;;6.40;99.90;8.20;96654.00;;;;5086387;28;20195;-85
2023/01/13 10:38:04;;;;;;;3.60;2.70;;;6.50;99.90;8.50;96643.00;;;;5092315;28;20584;-85
2023/01/13 10:40:55;;;;;;;7.83;3.43;;;6.60;99.90;8.50;96649.00;;;;5081111;28;20207;-85
2023/01/13 10:44:03;;;;;;;4.43;2.57;;;6.70;99.90;8.40;96639.00;;;;5091932;28;20204;-85
2023/01/13 10:46:54;;;;;;;4.37;2.33;;;6.80;99.90;8.20;96637.00;;;;5099745;28;20210;-85
2023/01/13 10:49:43;;;;;;;3.63;2.17;;;6.80;99.90;8.60;96628.00;;;;5092775;28;20273;-85
2023/01/13 10:52:37;;;;;;;4.17;2.07;;;6.90;99.90;8.80;96625.00;;;;5091002;28;20672;-85
2023/01/13 10:55:29;;;;;;;5.73;2.50;;;7.00;99.90;8.70;96614.00;;;;5103215;28;20198;-85
2023/01/13 10:58:20;;;;;;;6.67;2.70;;;7.20;99.90;8.70;96609.00;;;;5083832;28;20203;-85
2023/01/13 11:01:24;;;;;;;5.57;3.20;;;7.20;99.90;8.80;96610.00;;;;5081673;28;20229;-86
2023/01/13 11:04:29;;;;;;;5.50;2.60;;;7.30;99.90;8.70;96591.00;;;;5082858;28;20204;-85
2023/01/13 11:07:29;;;;;;;4.53;2.77;;;7.30;99.90;8.80;96588.00;;;;5086829;28;20229;-86
2023/01/13 11:10:22;;;;;;;6.13;2.50;;;7.40;99.90;9.10;96581.00;;;;5083001;28;20191;-86
2023/01/13 11:13:16;;;;;;;3.67;2.73;;;7.60;99.90;9.50;96589.00;;;;5082068;28;20235;-86
2023/01/13 11:16:14;;;;;;;4.37;3.00;;;7.80;99.90;9.90;96592.00;;;;5091148;28;20570;-86
2023/01/13 11:19:11;;;;;;;5.90;2.13;;;8.10;99.90;10.10;96586.00;;;;5088632;28;20214;-85
2023/01/13 11:22:07;;;;;;;6.40;2.87;;;8.40;99.90;10.20;96597.00;;;;5084840;28;20195;-86
2023/01/13 11:25:00;;;;;;;3.87;2.27;;;8.70;99.90;10.30;96595.00;;;;5075759;28;20231;-86
2023/01/13 11:27:57;;;;;;;3.80;2.30;;;8.90;99.90;10.20;96602.00;;;;5085404;28;20229;-86
2023/01/13 11:30:54;;;;;;;3.37;2.37;;;9.00;99.90;10.50;96594.00;;;;5087678;28;20277;-85
2023/01/13 11:33:52;;;;;;;4.33;2.53;;;9.10;99.90;11.20;96583.00;;;;5082319;28;20227;-86
2023/01/13 11:36:48;;;;;;;3.00;2.13;;;9.40;99.90;11.90;96596.00;;;;5082684;28;20222;-86
2023/01/13 11:39:52;;;;;;;5.37;2.27;;;9.90;99.90;12.30;96591.00;;;;5081992;28;20215;-86
2023/01/13 11:42:48;;;;;;;3.03;1.80;;;10.40;99.90;12.80;96592.00;;;;5079363;28;20196;-87
2023/01/13 11:45:43;;;;;;;5.57;2.97;;;10.80;99.90;12.50;96581.00;;;;5084408;28;20224;-87
2023/01/13 11:48:38;;;;;;;3.80;2.37;;;11.20;98.00;12.90;96598.00;;;;5087068;28;20278;-86
2023/01/13 11:51:36;;;;;;;4.30;2.03;;;11.40;97.20;12.70;96581.00;;;;5092778;28;20244;-84
2023/01/13 11:54:47;;;;;;;5.73;2.57;;;11.50;96.40;12.20;96590.00;;;;5088082;28;20277;-84
2023/01/13 11:58:10;;;;;;;8.63;2.70;;;11.30;96.20;12.10;96585.00;;;;5079698;28;20227;-84
2023/01/13 12:01:18;;;;;;;5.83;2.17;;;11.10;95.90;11.30;96573.00;;;;5083011;28;20292;-84
2023/01/13 12:04:26;;;;;;;5.73;2.90;;;10.70;95.30;11.80;96569.00;;;;5088631;28;20203;-85
2023/01/13 12:07:21;;;;;;;4.77;2.73;;;10.60;95.90;12.20;96566.00;;;;5088456;28;20226;-86
2023/01/13 12:10:19;;;;;;;4.20;2.20;;;10.60;96.40;12.30;96557.00;;;;5081420;28;20297;-86
2023/01/13 12:13:24;;;;;;;6.13;2.10;;;10.60;96.00;12.30;96562.00;;;;5093721;28;20214;-86
2023/01/13 12:16:22;;;;;;;5.80;2.80;;;10.60;95.80;12.60;96557.00;;;;5090831;28;20234;-86
2023/01/13 12:19:24;;;;;;;7.53;2.83;;;10.70;95.70;12.50;96566.00;;;;5077103;28;20199;-86
2023/01/13 12:22:20;;;;;;;5.50;3.10;;;10.70;95.50;12.00;96559.00;;;;5089626;28;20691;-86
2023/01/13 12:25:18;;;;;;;3.80;2.30;;;10.70;95.30;11.90;96557.00;;;;5089615;28;20668;-86
2023/01/13 12:28:14;;;;;;;3.23;2.10;;;10.60;94.90;11.80;96562.00;;;;5089061;28;20228;-87
2023/01/13 12:31:04;;;;;;;5.87;2.63;;;10.50;95.00;11.50;96549.00;;;;5090227;28;20203;-86
2023/01/13 12:34:04;;;;;;;6.07;2.90;;;10.30;95.00;11.60;96536.00;;;;5088444;28;20237;-86
2023/01/13 12:37:05;;;;;;;5.77;2.67;;;10.10;95.50;11.60;96530.00;;;;5089111;28;20215;-87
2023/01/13 12:40:28;;;;;;;7.77;2.37;;;10.00;95.70;11.50;96536.00;;;;5085757;28;20198;-87
2023/01/13 12:46:55;;;;;;;4.50;2.20;;;9.80;95.90;11.30;96535.00;;;;5077508;28;20261;-86
2023/01/13 12:49:44;;;;;;;12.37;3.37;;;9.70;96.30;11.50;96536.00;;;;5085550;28;20206;-86
2023/01/13 12:52:44;;;;;;;4.77;2.00;;;9.70;96.10;11.30;96530.00;;;;5084728;28;20195;-86
2023/01/13 12:55:36;;;;;;;3.07;2.57;;;9.70;96.10;11.20;96522.00;;;;5087521;28;20388;-86
2023/01/13 12:58:28;;;;;;;4.90;2.67;;;9.60;95.80;10.90;96519.00;;;;5088298;28;20574;-86
2023/01/13 13:01:18;;;;;;;7.10;3.37;;;9.60;96.00;11.00;96521.00;;;;5084110;28;20211;-86
2023/01/13 13:04:12;;;;;;;6.13;3.30;;;9.50;96.00;10.90;96524.00;;;;5089627;28;20200;-86
2023/01/13 13:07:08;;;;;;;3.60;2.77;;;9.50;96.30;10.90;96522.00;;;;5089905;28;20238;-86
2023/01/13 13:10:01;;;;;;;4.97;3.80;;;9.50;96.60;10.90;96524.00;;;;5078384;28;20248;-86
2023/01/13 13:16:48;;;;;;;4.70;2.70;;;9.40;96.60;10.70;96547.00;;;;5089948;28;20649;-86
2023/01/13 13:19:48;;;;;;;4.87;2.60;;;9.30;96.40;11.20;96556.00;;;;5085516;28;20207;-86
2023/01/13 13:22:44;;;;;;;4.43;3.00;;;9.40;97.00;11.30;96550.00;;;;5081925;28;20196;-86
2023/01/13 13:25:33;;;;;;;4.73;2.30;;;9.40;97.10;11.20;96566.00;;;;5085262;28;20207;-86
2023/01/13 13:28:24;;;;;;;5.53;2.17;;;9.50;97.00;11.30;96573.00;;;;5088856;28;20193;-86
2023/01/13 13:31:38;;;;;;;11.23;3.80;;;9.50;96.90;11.30;96573.00;;;;5085821;28;20613;-86
2023/01/13 13:34:33;;;;;;;4.77;2.67;;;9.50;96.80;11.10;96570.00;;;;5094890;28;20279;-86
2023/01/13 13:47:07;;;;;;;5.53;4.00;;;9.40;96.40;11.20;96594.00;;;;5084670;28;20212;-82
2023/01/13 13:50:07;;;;;;;9.17;3.23;;;9.40;96.90;11.10;96596.00;;;;5083696;28;20200;-82
2023/01/13 13:53:04;;;;;;;3.83;2.57;;;9.40;96.80;11.10;96597.00;;;;5084845;28;20194;-82
2023/01/13 13:55:56;;;;;;;3.87;3.37;;;9.40;96.60;11.10;96590.00;;;;5094738;28;20250;-82
2023/01/13 13:58:47;;;;;;;6.87;3.27;;;9.40;96.90;11.00;96599.00;;;;5090427;28;20542;-82
2023/01/13 14:01:43;;;;;;;13.33;7.33;;;9.40;96.80;11.00;96595.00;;;;5086079;28;20204;-82